createdAt,value
2017-05-09T00:00:07.062Z,1016.17
2017-05-09T00:01:07.038Z,1016.18
2017-05-09T00:02:07.023Z,1016.15
2017-05-09T00:03:07.003Z,1016.13
2017-05-09T00:04:06.973Z,1016.16
2017-05-09T00:05:06.953Z,1016.12
2017-05-09T00:06:06.929Z,1016.13
2017-05-09T00:07:06.916Z,1016.13
2017-05-09T00:08:06.893Z,1016.16
2017-05-09T00:09:06.867Z,1016.11
2017-05-09T00:10:06.843Z,1016.13
2017-05-09T00:11:06.822Z,1016.1
2017-05-09T00:12:06.803Z,1016.12
2017-05-09T00:13:06.782Z,1016.09
2017-05-09T00:14:06.758Z,1016.05
2017-05-09T00:15:06.732Z,1016.04
2017-05-09T00:16:06.713Z,1016.05
2017-05-09T00:17:06.692Z,1016.04
2017-05-09T00:18:06.671Z,1016.05
2017-05-09T00:19:06.648Z,1016.01
2017-05-09T00:20:06.629Z,1016.04
2017-05-09T00:21:06.603Z,1016.02
2017-05-09T00:22:06.583Z,1016.01
2017-05-09T00:23:06.563Z,1016.01
2017-05-09T00:24:06.538Z,1016.04
2017-05-09T00:25:06.521Z,1016.05
2017-05-09T00:26:06.492Z,1015.99
2017-05-09T00:27:06.471Z,1016.01
2017-05-09T00:28:06.479Z,1016.04
2017-05-09T00:29:06.432Z,1016
2017-05-09T00:30:06.404Z,1015.97
2017-05-09T00:31:06.384Z,1015.96
2017-05-09T00:32:06.364Z,1015.99
2017-05-09T00:33:06.343Z,1016
2017-05-09T00:34:06.324Z,1015.99
2017-05-09T00:35:06.300Z,1015.95
2017-05-09T00:36:06.273Z,1015.94
2017-05-09T00:37:06.251Z,1015.91
2017-05-09T00:38:06.233Z,1015.91
2017-05-09T00:39:06.251Z,1015.88
2017-05-09T00:40:06.192Z,1015.86
2017-05-09T00:41:06.161Z,1015.86
2017-05-09T00:42:06.143Z,1015.91
2017-05-09T00:43:06.124Z,1015.89
2017-05-09T00:44:06.101Z,1015.89
2017-05-09T00:45:06.078Z,1015.85
2017-05-09T00:46:06.055Z,1015.85
2017-05-09T00:47:06.033Z,1015.85
2017-05-09T00:48:06.020Z,1015.86
2017-05-09T00:49:05.990Z,1015.86
2017-05-09T00:50:05.964Z,1015.88
2017-05-09T00:51:05.946Z,1015.85
2017-05-09T00:52:05.922Z,1015.85
2017-05-09T00:53:05.903Z,1015.88
2017-05-09T00:54:05.878Z,1015.88
2017-05-09T00:55:05.855Z,1015.85
2017-05-09T00:56:05.835Z,1015.86
2017-05-09T00:57:05.815Z,1015.84
2017-05-09T00:58:05.792Z,1015.82
2017-05-09T00:59:05.767Z,1015.81
2017-05-09T01:00:05.743Z,1015.79
2017-05-09T01:01:05.722Z,1015.78
2017-05-09T01:02:05.699Z,1015.78
2017-05-09T01:03:05.680Z,1015.76
2017-05-09T01:04:05.660Z,1015.8
2017-05-09T01:05:05.639Z,1015.77
2017-05-09T01:06:05.612Z,1015.76
2017-05-09T01:07:05.593Z,1015.76
2017-05-09T01:08:05.572Z,1015.76
2017-05-09T01:09:05.548Z,1015.75
2017-05-09T01:10:05.524Z,1015.76
2017-05-09T01:11:05.502Z,1015.71
2017-05-09T01:12:05.484Z,1015.72
2017-05-09T01:13:05.462Z,1015.69
2017-05-09T01:14:05.433Z,1015.7
2017-05-09T01:15:05.411Z,1015.68
2017-05-09T01:16:05.394Z,1015.69
2017-05-09T01:17:05.371Z,1015.68
2017-05-09T01:18:05.348Z,1015.67
2017-05-09T01:19:05.334Z,1015.61
2017-05-09T01:20:05.305Z,1015.66
2017-05-09T01:21:05.279Z,1015.68
2017-05-09T01:22:05.262Z,1015.66
2017-05-09T01:23:05.231Z,1015.65
2017-05-09T01:24:05.212Z,1015.7
2017-05-09T01:25:05.189Z,1015.71
2017-05-09T01:26:05.169Z,1015.64
2017-05-09T01:27:05.144Z,1015.65
2017-05-09T01:28:05.123Z,1015.61
2017-05-09T01:29:05.104Z,1015.64
2017-05-09T01:30:05.083Z,1015.61
2017-05-09T01:31:05.059Z,1015.59
2017-05-09T01:32:05.033Z,1015.58
2017-05-09T01:33:05.010Z,1015.57
2017-05-09T01:34:04.993Z,1015.55
2017-05-09T01:35:04.966Z,1015.56
2017-05-09T01:36:04.946Z,1015.57
2017-05-09T01:37:04.924Z,1015.55
2017-05-09T01:38:04.904Z,1015.5
2017-05-09T01:39:04.882Z,1015.5
2017-05-09T01:40:04.853Z,1015.51
2017-05-09T01:41:04.834Z,1015.52
2017-05-09T01:42:04.814Z,1015.51
2017-05-09T01:43:04.788Z,1015.52
2017-05-09T01:44:04.762Z,1015.5
2017-05-09T01:45:04.809Z,1015.5
2017-05-09T01:46:04.722Z,1015.51
2017-05-09T01:47:04.698Z,1015.51
2017-05-09T01:48:04.674Z,1015.48
2017-05-09T01:49:04.712Z,1015.5
2017-05-09T01:50:04.631Z,1015.53
2017-05-09T01:51:04.607Z,1015.52
2017-05-09T01:52:04.582Z,1015.48
2017-05-09T01:53:04.565Z,1015.52
2017-05-09T01:54:04.537Z,1015.5
2017-05-09T01:55:04.523Z,1015.53
2017-05-09T01:56:04.492Z,1015.53
2017-05-09T01:57:04.548Z,1015.51
2017-05-09T01:58:04.452Z,1015.53
2017-05-09T01:59:04.433Z,1015.55
2017-05-09T02:00:04.402Z,1015.57
2017-05-09T02:01:04.383Z,1015.55
2017-05-09T02:02:04.364Z,1015.53
2017-05-09T02:03:04.341Z,1015.56
2017-05-09T02:04:04.311Z,1015.55
2017-05-09T02:05:04.402Z,1015.57
2017-05-09T02:06:04.272Z,1015.58
2017-05-09T02:07:04.352Z,1015.61
2017-05-09T02:08:04.224Z,1015.64
2017-05-09T02:09:04.205Z,1015.6
2017-05-09T02:10:04.179Z,1015.62
2017-05-09T02:11:04.162Z,1015.6
2017-05-09T02:12:04.132Z,1015.65
2017-05-09T02:13:04.184Z,1015.62
2017-05-09T02:14:04.091Z,1015.62
2017-05-09T02:15:04.063Z,1015.64
2017-05-09T02:16:04.041Z,1015.63
2017-05-09T02:17:04.019Z,1015.66
2017-05-09T02:18:03.997Z,1015.65
2017-05-09T02:19:03.973Z,1015.66
2017-05-09T02:20:03.952Z,1015.66
2017-05-09T02:21:03.930Z,1015.67
2017-05-09T02:22:03.914Z,1015.67
2017-05-09T02:23:03.883Z,1015.68
2017-05-09T02:24:03.860Z,1015.65
2017-05-09T02:25:03.839Z,1015.66
2017-05-09T02:26:03.821Z,1015.62
2017-05-09T02:27:03.802Z,1015.64
2017-05-09T02:28:03.775Z,1015.63
2017-05-09T02:29:03.755Z,1015.63
2017-05-09T02:30:03.725Z,1015.6
2017-05-09T02:31:03.719Z,1015.57
2017-05-09T02:32:03.677Z,1015.58
2017-05-09T02:33:03.655Z,1015.55
2017-05-09T02:34:03.633Z,1015.56
2017-05-09T02:35:03.615Z,1015.55
2017-05-09T02:36:03.587Z,1015.58
2017-05-09T02:37:03.562Z,1015.6
2017-05-09T02:38:03.542Z,1015.58
2017-05-09T02:39:03.522Z,1015.57
2017-05-09T02:40:03.491Z,1015.56
2017-05-09T02:41:03.470Z,1015.58
2017-05-09T02:42:03.454Z,1015.58
2017-05-09T02:43:03.424Z,1015.6
2017-05-09T02:44:03.404Z,1015.57
2017-05-09T02:45:03.380Z,1015.57
2017-05-09T02:46:03.357Z,1015.55
2017-05-09T02:47:03.335Z,1015.56
2017-05-09T02:48:03.314Z,1015.61
2017-05-09T02:49:03.287Z,1015.58
2017-05-09T02:50:03.272Z,1015.56
2017-05-09T02:51:03.242Z,1015.58
2017-05-09T02:52:03.222Z,1015.58
2017-05-09T02:53:03.195Z,1015.52
2017-05-09T02:54:03.171Z,1015.51
2017-05-09T02:55:03.155Z,1015.49
2017-05-09T02:56:03.132Z,1015.5
2017-05-09T02:57:03.112Z,1015.5
2017-05-09T02:58:03.083Z,1015.48
2017-05-09T02:59:03.063Z,1015.45
2017-05-09T03:00:03.045Z,1015.43
2017-05-09T03:01:03.012Z,1015.42
2017-05-09T03:02:02.993Z,1015.41
2017-05-09T03:03:02.970Z,1015.42
2017-05-09T03:04:02.942Z,1015.38
2017-05-09T03:05:02.922Z,1015.4
2017-05-09T03:06:02.901Z,1015.43
2017-05-09T03:07:02.872Z,1015.41
2017-05-09T03:08:02.855Z,1015.41
2017-05-09T03:09:02.829Z,1015.42
2017-05-09T03:10:02.805Z,1015.38
2017-05-09T03:11:02.782Z,1015.39
2017-05-09T03:12:02.762Z,1015.4
2017-05-09T03:13:02.743Z,1015.36
2017-05-09T03:14:02.714Z,1015.35
2017-05-09T03:15:02.692Z,1015.37
2017-05-09T03:16:02.670Z,1015.35
2017-05-09T03:17:02.644Z,1015.31
2017-05-09T03:18:02.623Z,1015.32
2017-05-09T03:19:02.605Z,1015.26
2017-05-09T03:20:02.577Z,1015.29
2017-05-09T03:21:02.563Z,1015.25
2017-05-09T03:22:02.533Z,1015.25
2017-05-09T03:23:02.513Z,1015.3
2017-05-09T03:24:02.482Z,1015.35
2017-05-09T03:25:02.465Z,1015.36
2017-05-09T03:26:02.441Z,1015.41
2017-05-09T03:27:02.413Z,1015.4
2017-05-09T03:28:02.393Z,1015.4
2017-05-09T03:29:02.372Z,1015.39
2017-05-09T03:30:02.347Z,1015.34
2017-05-09T03:31:02.324Z,1015.41
2017-05-09T03:32:02.349Z,1015.4
2017-05-09T03:33:02.284Z,1015.39
2017-05-09T03:34:02.262Z,1015.39
2017-05-09T03:35:02.234Z,1015.42
2017-05-09T03:36:02.210Z,1015.39
2017-05-09T03:37:02.192Z,1015.38
2017-05-09T03:38:02.162Z,1015.39
2017-05-09T03:39:02.143Z,1015.36
2017-05-09T03:40:02.113Z,1015.39
2017-05-09T03:41:02.088Z,1015.35
2017-05-09T03:42:02.117Z,1015.34
2017-05-09T03:43:02.042Z,1015.3
2017-05-09T03:44:02.023Z,1015.32
2017-05-09T03:45:02.002Z,1015.32
2017-05-09T03:46:01.972Z,1015.32
2017-05-09T03:47:01.951Z,1015.34
2017-05-09T03:48:01.933Z,1015.32
2017-05-09T03:49:01.901Z,1015.3
2017-05-09T03:50:01.879Z,1015.31
2017-05-09T03:51:01.856Z,1015.29
2017-05-09T03:52:01.832Z,1015.31
2017-05-09T03:53:01.812Z,1015.3
2017-05-09T03:54:01.784Z,1015.32
2017-05-09T03:55:01.771Z,1015.3
2017-05-09T03:56:01.741Z,1015.32
2017-05-09T03:57:01.721Z,1015.3
2017-05-09T03:58:01.702Z,1015.33
2017-05-09T03:59:01.673Z,1015.33
2017-05-09T04:00:01.653Z,1015.36
2017-05-09T04:01:01.628Z,1015.36
2017-05-09T04:02:01.603Z,1015.31
2017-05-09T04:03:01.579Z,1015.34
2017-05-09T04:04:01.552Z,1015.34
2017-05-09T04:05:01.528Z,1015.38
2017-05-09T04:06:01.512Z,1015.34
2017-05-09T04:07:01.488Z,1015.38
2017-05-09T04:08:01.462Z,1015.4
2017-05-09T04:09:01.442Z,1015.4
2017-05-09T04:10:01.424Z,1015.44
2017-05-09T04:11:01.389Z,1015.44
2017-05-09T04:12:01.374Z,1015.42
2017-05-09T04:13:01.342Z,1015.47
2017-05-09T04:14:01.323Z,1015.48
2017-05-09T04:15:01.299Z,1015.47
2017-05-09T04:16:01.273Z,1015.48
2017-05-09T04:17:01.253Z,1015.47
2017-05-09T04:18:01.230Z,1015.48
2017-05-09T04:19:01.201Z,1015.5
2017-05-09T04:20:01.183Z,1015.55
2017-05-09T04:21:01.156Z,1015.47
2017-05-09T04:22:01.134Z,1015.45
2017-05-09T04:23:01.113Z,1015.42
2017-05-09T04:24:01.083Z,1015.45
2017-05-09T04:25:01.061Z,1015.42
2017-05-09T04:26:01.041Z,1015.42
2017-05-09T04:27:01.017Z,1015.42
2017-05-09T04:28:00.994Z,1015.42
2017-05-09T04:29:00.966Z,1015.42
2017-05-09T04:30:00.947Z,1015.41
2017-05-09T04:31:00.925Z,1015.41
2017-05-09T04:32:00.897Z,1015.36
2017-05-09T04:33:00.877Z,1015.37
2017-05-09T04:34:00.850Z,1015.38
2017-05-09T04:35:00.835Z,1015.32
2017-05-09T04:36:00.809Z,1015.35
2017-05-09T04:37:00.782Z,1015.3
2017-05-09T04:38:00.764Z,1015.3
2017-05-09T04:39:00.745Z,1015.31
2017-05-09T04:40:00.715Z,1015.28
2017-05-09T04:41:00.688Z,1015.3
2017-05-09T04:42:00.670Z,1015.25
2017-05-09T04:43:00.642Z,1015.28
2017-05-09T04:44:00.620Z,1015.31
2017-05-09T04:45:00.600Z,1015.3
2017-05-09T04:46:00.575Z,1015.27
2017-05-09T04:47:00.550Z,1015.28
2017-05-09T04:48:00.533Z,1015.24
2017-05-09T04:49:00.502Z,1015.26
2017-05-09T04:50:00.478Z,1015.23
2017-05-09T04:51:00.456Z,1015.24
2017-05-09T04:52:00.431Z,1015.24
2017-05-09T04:53:00.409Z,1015.24
2017-05-09T04:54:00.389Z,1015.22
2017-05-09T04:55:00.363Z,1015.23
2017-05-09T04:56:00.343Z,1015.25
2017-05-09T04:57:00.321Z,1015.2
2017-05-09T04:58:00.295Z,1015.2
2017-05-09T04:59:00.273Z,1015.18
2017-05-09T05:00:00.250Z,1015.16
2017-05-09T05:01:00.222Z,1015.21
2017-05-09T05:02:00.203Z,1015.19
2017-05-09T05:03:00.178Z,1015.19
2017-05-09T05:04:00.161Z,1015.2
2017-05-09T05:05:00.133Z,1015.18
2017-05-09T05:06:00.113Z,1015.17
2017-05-09T05:07:00.087Z,1015.18
2017-05-09T05:08:00.065Z,1015.17
2017-05-09T05:09:00.044Z,1015.17
2017-05-09T05:10:00.024Z,1015.19
2017-05-09T05:10:59.994Z,1015.19
2017-05-09T05:11:59.973Z,1015.25
2017-05-09T05:12:59.946Z,1015.25
2017-05-09T05:13:59.922Z,1015.22
2017-05-09T05:14:59.904Z,1015.22
2017-05-09T05:15:59.878Z,1015.22
2017-05-09T05:16:59.862Z,1015.23
2017-05-09T05:17:59.832Z,1015.27
2017-05-09T05:18:59.809Z,1015.24
2017-05-09T05:19:59.794Z,1015.22
2017-05-09T05:20:59.765Z,1015.26
2017-05-09T05:21:59.742Z,1015.23
2017-05-09T05:22:59.721Z,1015.21
2017-05-09T05:23:59.703Z,1015.21
2017-05-09T05:24:59.672Z,1015.2
2017-05-09T05:25:59.653Z,1015.21
2017-05-09T05:26:59.625Z,1015.18
2017-05-09T05:27:59.602Z,1015.2
2017-05-09T05:28:59.583Z,1015.23
2017-05-09T05:29:59.563Z,1015.22
2017-05-09T05:30:59.536Z,1015.2
2017-05-09T05:31:59.512Z,1015.21
2017-05-09T05:32:59.493Z,1015.21
2017-05-09T05:33:59.467Z,1015.24
2017-05-09T05:34:59.446Z,1015.23
2017-05-09T05:35:59.424Z,1015.21
2017-05-09T05:36:59.399Z,1015.18
2017-05-09T05:37:59.374Z,1015.18
2017-05-09T05:38:59.360Z,1015.19
2017-05-09T05:39:59.334Z,1015.13
2017-05-09T05:40:59.309Z,1015.13
2017-05-09T05:41:59.291Z,1015.09
2017-05-09T05:42:59.266Z,1015.11
2017-05-09T05:43:59.239Z,1015.08
2017-05-09T05:44:59.222Z,1015.08
2017-05-09T05:45:59.203Z,1015.12
2017-05-09T05:46:59.181Z,1015.12
2017-05-09T05:47:59.154Z,1015.13
2017-05-09T05:48:59.129Z,1015.13
2017-05-09T05:49:59.115Z,1015.14
2017-05-09T05:50:59.088Z,1015.15
2017-05-09T05:51:59.062Z,1015.16
2017-05-09T05:52:59.041Z,1015.14
2017-05-09T05:53:59.023Z,1015.17
2017-05-09T05:54:59.102Z,1015.17
2017-05-09T05:55:58.972Z,1015.17
2017-05-09T05:56:59.103Z,1015.14
2017-05-09T05:57:58.928Z,1015.13
2017-05-09T05:58:58.914Z,1015.16
2017-05-09T05:59:58.894Z,1015.14
2017-05-09T06:00:58.866Z,1015.17
2017-05-09T06:01:58.842Z,1015.15
2017-05-09T06:02:58.823Z,1015.13
2017-05-09T06:03:58.803Z,1015.17
2017-05-09T06:04:58.783Z,1015.13
2017-05-09T06:05:58.752Z,1015.16
2017-05-09T06:06:58.783Z,1015.13
2017-05-09T06:07:58.708Z,1015.17
2017-05-09T06:08:58.692Z,1015.13
2017-05-09T06:09:58.672Z,1015.15
2017-05-09T06:10:58.653Z,1015.11
2017-05-09T06:11:58.632Z,1015.11
2017-05-09T06:12:58.603Z,1015.15
2017-05-09T06:13:58.583Z,1015.14
2017-05-09T06:14:58.563Z,1015.15
2017-05-09T06:15:58.534Z,1015.16
2017-05-09T06:16:58.518Z,1015.18
2017-05-09T06:17:58.492Z,1015.17
2017-05-09T06:18:58.505Z,1015.18
2017-05-09T06:19:58.481Z,1015.2
2017-05-09T06:20:58.444Z,1015.2
2017-05-09T06:21:58.412Z,1015.22
2017-05-09T06:22:58.492Z,1015.2
2017-05-09T06:23:58.362Z,1015.24
2017-05-09T06:24:58.343Z,1015.23
2017-05-09T06:25:58.321Z,1015.21
2017-05-09T06:26:58.311Z,1015.23
2017-05-09T06:27:58.283Z,1015.2
2017-05-09T06:28:58.269Z,1015.18
2017-05-09T06:29:58.236Z,1015.19
2017-05-09T06:30:58.222Z,1015.18
2017-05-09T06:31:58.189Z,1015.18
2017-05-09T06:32:58.183Z,1015.22
2017-05-09T06:33:58.153Z,1015.19
2017-05-09T06:34:58.141Z,1015.2
2017-05-09T06:35:58.108Z,1015.22
2017-05-09T06:36:58.088Z,1015.21
2017-05-09T06:37:58.068Z,1015.21
2017-05-09T06:38:58.041Z,1015.2
2017-05-09T06:39:58.024Z,1015.24
2017-05-09T06:40:58.006Z,1015.21
2017-05-09T06:41:57.981Z,1015.26
2017-05-09T06:42:57.960Z,1015.22
2017-05-09T06:43:57.950Z,1015.24
2017-05-09T06:44:57.917Z,1015.24
2017-05-09T06:45:57.903Z,1015.22
2017-05-09T06:46:57.880Z,1015.27
2017-05-09T06:47:57.856Z,1015.21
2017-05-09T06:48:57.841Z,1015.23
2017-05-09T06:49:57.813Z,1015.23
2017-05-09T06:50:57.792Z,1015.28
2017-05-09T06:51:57.774Z,1015.22
2017-05-09T06:52:57.753Z,1015.27
2017-05-09T06:53:57.731Z,1015.25
2017-05-09T06:54:57.714Z,1015.24
2017-05-09T06:55:57.696Z,1015.2
2017-05-09T06:56:57.675Z,1015.22
2017-05-09T06:57:57.646Z,1015.21
2017-05-09T06:58:57.633Z,1015.23
2017-05-09T06:59:57.611Z,1015.19
2017-05-09T07:00:57.591Z,1015.18
2017-05-09T07:01:57.571Z,1015.17
2017-05-09T07:02:57.546Z,1015.15
2017-05-09T07:03:57.525Z,1015.15
2017-05-09T07:04:57.508Z,1015.14
2017-05-09T07:05:57.483Z,1015.15
2017-05-09T07:06:57.470Z,1015.13
2017-05-09T07:07:57.441Z,1015.12
2017-05-09T07:08:57.421Z,1015.17
2017-05-09T07:09:57.402Z,1015.11
2017-05-09T07:10:57.383Z,1015.11
2017-05-09T07:11:57.362Z,1015.12
2017-05-09T07:12:57.344Z,1015.09
2017-05-09T07:13:57.323Z,1015.09
2017-05-09T07:14:57.300Z,1015.11
2017-05-09T07:15:57.281Z,1015.13
2017-05-09T07:16:57.262Z,1015.1
2017-05-09T07:17:57.244Z,1015.1
2017-05-09T07:18:57.218Z,1015.12
2017-05-09T07:19:57.203Z,1015.09
2017-05-09T07:20:57.183Z,1015.12
2017-05-09T07:21:57.160Z,1015.09
2017-05-09T07:22:57.144Z,1015.08
2017-05-09T07:23:57.122Z,1015.07
2017-05-09T07:24:57.102Z,1015.07
2017-05-09T07:25:57.082Z,1015.05
2017-05-09T07:26:57.065Z,1015.06
2017-05-09T07:27:57.040Z,1015.01
2017-05-09T07:28:57.023Z,1015.05
2017-05-09T07:29:57.003Z,1015.1
2017-05-09T07:30:56.981Z,1015.07
2017-05-09T07:31:56.961Z,1015.09
2017-05-09T07:32:56.939Z,1015.05
2017-05-09T07:33:56.925Z,1015.07
2017-05-09T07:34:56.903Z,1015.09
2017-05-09T07:35:56.883Z,1015.09
2017-05-09T07:36:56.861Z,1015.13
2017-05-09T07:37:56.843Z,1015.09
2017-05-09T07:38:56.824Z,1015.11
2017-05-09T07:39:56.807Z,1015.07
2017-05-09T07:40:56.785Z,1015.05
2017-05-09T07:41:56.768Z,1015.01
2017-05-09T07:42:56.746Z,1015.01
2017-05-09T07:43:56.730Z,1015.04
2017-05-09T07:44:56.710Z,1015.05
2017-05-09T07:45:56.694Z,1015.11
2017-05-09T07:46:56.675Z,1015.44
2017-05-09T07:47:56.654Z,1015.68
2017-05-09T07:48:56.644Z,1015.8
2017-05-09T07:49:56.614Z,1015.89
2017-05-09T07:50:56.603Z,1016.1
2017-05-09T07:51:56.582Z,1016.12
2017-05-09T07:52:56.561Z,1016.01
2017-05-09T07:53:56.544Z,1016.47
2017-05-09T07:54:56.523Z,1016.39
2017-05-09T07:55:56.514Z,1016.52
2017-05-09T07:56:56.498Z,1016.46
2017-05-09T07:57:56.469Z,1016.22
2017-05-09T07:58:56.454Z,1015.9
2017-05-09T07:59:56.437Z,1015.7
2017-05-09T08:00:56.422Z,1015.62
2017-05-09T08:01:56.402Z,1015.56
2017-05-09T08:02:56.384Z,1015.59
2017-05-09T08:03:56.372Z,1015.59
2017-05-09T08:04:56.362Z,1015.66
2017-05-09T08:05:56.341Z,1015.62
2017-05-09T08:06:56.324Z,1015.64
2017-05-09T08:07:56.312Z,1015.64
2017-05-09T08:08:56.302Z,1015.64
2017-05-09T08:09:56.282Z,1015.6
2017-05-09T08:10:56.275Z,1015.61
2017-05-09T08:11:56.262Z,1015.55
2017-05-09T08:12:56.246Z,1015.47
2017-05-09T08:13:56.233Z,1015.45
2017-05-09T08:14:56.327Z,1015.4
2017-05-09T08:15:56.215Z,1015.36
2017-05-09T08:16:56.210Z,1015.36
2017-05-09T08:17:56.200Z,1015.29
2017-05-09T08:18:56.185Z,1015.29
2017-05-09T08:19:56.175Z,1015.3
2017-05-09T08:20:56.158Z,1015.29
2017-05-09T08:21:56.152Z,1015.19
2017-05-09T08:22:56.143Z,1015.15
2017-05-09T08:23:56.137Z,1015.14
2017-05-09T08:24:56.131Z,1015.13
2017-05-09T08:25:56.123Z,1015.14
2017-05-09T08:26:56.115Z,1015.15
2017-05-09T08:27:56.102Z,1015.09
2017-05-09T08:28:56.091Z,1015.14
2017-05-09T08:29:56.092Z,1015.06
2017-05-09T08:30:56.077Z,1015.09
2017-05-09T08:31:56.075Z,1015.08
2017-05-09T08:32:56.062Z,1015.1
2017-05-09T08:33:56.059Z,1015.12
2017-05-09T08:34:56.050Z,1015.1
2017-05-09T08:35:56.043Z,1015.09
2017-05-09T08:36:56.036Z,1015.1
2017-05-09T08:37:56.030Z,1015.13
2017-05-09T08:38:56.021Z,1015.15
2017-05-09T08:39:56.021Z,1015.13
2017-05-09T08:40:56.013Z,1015.17
2017-05-09T08:41:56.014Z,1015.17
2017-05-09T08:42:56.001Z,1015.13
2017-05-09T08:43:55.993Z,1015.12
2017-05-09T08:44:55.982Z,1015.13
2017-05-09T08:45:55.983Z,1015.18
2017-05-09T08:46:55.974Z,1015.25
2017-05-09T08:47:55.968Z,1015.22
2017-05-09T08:48:55.964Z,1015.32
2017-05-09T08:49:55.961Z,1015.47
2017-05-09T08:50:55.956Z,1015.5
2017-05-09T08:51:55.948Z,1015.38
2017-05-09T08:52:55.943Z,1015.33
2017-05-09T08:53:55.937Z,1015.45
2017-05-09T08:54:55.935Z,1015.57
2017-05-09T08:55:55.932Z,1015.59
2017-05-09T08:56:55.920Z,1015.59
2017-05-09T08:57:55.917Z,1015.5
2017-05-09T08:58:55.913Z,1015.53
2017-05-09T08:59:55.908Z,1015.56
2017-05-09T09:00:55.905Z,1015.64
2017-05-09T09:01:55.900Z,1015.57
2017-05-09T09:02:55.901Z,1015.38
2017-05-09T09:03:55.892Z,1015.29
2017-05-09T09:04:55.892Z,1015.26
2017-05-09T09:05:55.882Z,1015.22
2017-05-09T09:06:55.881Z,1015.15
2017-05-09T09:07:55.876Z,1015.19
2017-05-09T09:08:55.869Z,1015.15
2017-05-09T09:09:55.869Z,1015.14
2017-05-09T09:10:55.864Z,1015.15
2017-05-09T09:11:55.866Z,1015.16
2017-05-09T09:12:55.853Z,1015.18
2017-05-09T09:13:55.854Z,1015.17
2017-05-09T09:14:55.848Z,1015.2
2017-05-09T09:15:55.845Z,1015.08
2017-05-09T09:16:55.839Z,1014.98
2017-05-09T09:17:55.834Z,1014.96
2017-05-09T09:18:55.830Z,1014.94
2017-05-09T09:19:55.824Z,1014.94
2017-05-09T09:20:55.823Z,1014.91
2017-05-09T09:21:55.817Z,1014.9
2017-05-09T09:22:55.815Z,1014.91
2017-05-09T09:23:55.813Z,1014.88
2017-05-09T09:24:55.812Z,1014.88
2017-05-09T09:25:55.802Z,1014.88
2017-05-09T09:26:55.798Z,1014.84
2017-05-09T09:27:55.793Z,1014.89
2017-05-09T09:28:55.788Z,1014.88
2017-05-09T09:29:55.783Z,1014.87
2017-05-09T09:30:55.781Z,1014.84
2017-05-09T09:31:55.780Z,1014.79
2017-05-09T09:32:55.772Z,1014.8
2017-05-09T09:33:55.763Z,1014.81
2017-05-09T09:34:55.764Z,1014.82
2017-05-09T09:35:55.757Z,1014.79
2017-05-09T09:36:55.755Z,1014.84
2017-05-09T09:37:55.749Z,1014.8
2017-05-09T09:38:55.741Z,1014.83
2017-05-09T09:39:55.737Z,1014.81
2017-05-09T09:40:55.733Z,1014.72
2017-05-09T09:41:55.727Z,1014.74
2017-05-09T09:42:55.722Z,1014.72
2017-05-09T09:43:55.722Z,1014.75
2017-05-09T09:44:55.711Z,1014.72
2017-05-09T09:45:55.713Z,1014.72
2017-05-09T09:46:55.706Z,1014.72
2017-05-09T09:47:55.702Z,1014.76
2017-05-09T09:48:55.697Z,1014.73
2017-05-09T09:49:55.689Z,1014.69
2017-05-09T09:50:55.683Z,1014.68
2017-05-09T09:51:55.682Z,1014.66
2017-05-09T09:52:55.676Z,1014.6
2017-05-09T09:53:55.664Z,1014.59
2017-05-09T09:54:55.662Z,1014.49
2017-05-09T09:55:55.655Z,1014.57
2017-05-09T09:56:55.669Z,1014.6
2017-05-09T09:57:55.644Z,1014.59
2017-05-09T09:58:55.637Z,1014.56
2017-05-09T09:59:55.629Z,1014.56
2017-05-09T10:00:55.619Z,1014.54
2017-05-09T10:01:55.612Z,1014.5
2017-05-09T10:02:55.612Z,1014.54
2017-05-09T10:03:55.596Z,1014.5
2017-05-09T10:04:55.592Z,1014.48
2017-05-09T10:05:55.587Z,1014.45
2017-05-09T10:06:55.576Z,1014.38
2017-05-09T10:07:55.578Z,1014.36
2017-05-09T10:08:55.558Z,1014.34
2017-05-09T10:09:55.554Z,1014.38
2017-05-09T10:10:55.553Z,1014.38
2017-05-09T10:11:55.544Z,1014.34
2017-05-09T10:12:55.535Z,1014.37
2017-05-09T10:13:55.531Z,1014.34
2017-05-09T10:14:55.519Z,1014.33
2017-05-09T10:15:55.515Z,1014.26
2017-05-09T10:16:55.502Z,1014.27
2017-05-09T10:17:55.489Z,1014.28
2017-05-09T10:18:55.482Z,1014.28
2017-05-09T10:19:55.472Z,1014.27
2017-05-09T10:20:55.467Z,1014.26
2017-05-09T10:21:55.466Z,1014.25
2017-05-09T10:22:55.453Z,1014.21
2017-05-09T10:23:55.439Z,1014.21
2017-05-09T10:24:55.428Z,1014.18
2017-05-09T10:25:55.426Z,1014.18
2017-05-09T10:26:55.411Z,1014.14
2017-05-09T10:27:55.400Z,1014.17
2017-05-09T10:28:55.392Z,1014.14
2017-05-09T10:29:55.383Z,1014.14
2017-05-09T10:30:55.375Z,1014.1
2017-05-09T10:31:55.367Z,1014.07
2017-05-09T10:32:55.353Z,1014.03
2017-05-09T10:33:55.351Z,1014.07
2017-05-09T10:34:55.340Z,1014.07
2017-05-09T10:35:55.327Z,1014.09
2017-05-09T10:36:55.320Z,1014.02
2017-05-09T10:37:55.315Z,1014.02
2017-05-09T10:38:55.294Z,1014.03
2017-05-09T10:39:55.284Z,1013.95
2017-05-09T10:40:55.284Z,1013.98
2017-05-09T10:41:55.272Z,1013.99
2017-05-09T10:42:55.261Z,1013.95
2017-05-09T10:43:55.243Z,1013.9
2017-05-09T10:44:55.245Z,1013.96
2017-05-09T10:45:55.224Z,1013.93
2017-05-09T10:46:55.212Z,1013.94
2017-05-09T10:47:55.205Z,1013.91
2017-05-09T10:48:55.191Z,1013.91
2017-05-09T10:49:55.181Z,1013.94
2017-05-09T10:50:55.175Z,1013.9
2017-05-09T10:51:55.154Z,1013.9
2017-05-09T10:52:55.292Z,1013.86
2017-05-09T10:53:55.130Z,1013.83
2017-05-09T10:54:55.123Z,1013.83
2017-05-09T10:55:55.110Z,1013.81
2017-05-09T10:56:55.101Z,1013.83
2017-05-09T10:57:55.082Z,1013.79
2017-05-09T10:58:55.083Z,1013.78
2017-05-09T10:59:55.064Z,1013.79
2017-05-09T11:00:55.124Z,1013.8
2017-05-09T11:01:55.040Z,1013.79
2017-05-09T11:02:55.124Z,1013.77
2017-05-09T11:03:55.011Z,1013.77
2017-05-09T11:04:55.071Z,1013.75
2017-05-09T11:05:54.982Z,1013.68
2017-05-09T11:06:54.971Z,1013.66
2017-05-09T11:07:54.962Z,1013.68
2017-05-09T11:08:54.951Z,1013.63
2017-05-09T11:09:54.932Z,1013.65
2017-05-09T11:10:54.969Z,1013.65
2017-05-09T11:11:54.915Z,1013.6
2017-05-09T11:12:54.945Z,1013.56
2017-05-09T11:13:54.882Z,1013.54
2017-05-09T11:14:54.874Z,1013.52
2017-05-09T11:15:54.855Z,1013.57
2017-05-09T11:16:54.847Z,1013.53
2017-05-09T11:17:54.833Z,1013.52
2017-05-09T11:18:54.819Z,1013.48
2017-05-09T11:19:54.809Z,1013.47
2017-05-09T11:20:54.792Z,1013.46
2017-05-09T11:21:54.780Z,1013.47
2017-05-09T11:22:54.772Z,1013.46
2017-05-09T11:23:54.752Z,1013.45
2017-05-09T11:24:54.743Z,1013.43
2017-05-09T11:25:54.731Z,1013.45
2017-05-09T11:26:54.710Z,1013.42
2017-05-09T11:27:54.701Z,1013.45
2017-05-09T11:28:54.691Z,1013.47
2017-05-09T11:29:54.673Z,1013.47
2017-05-09T11:30:54.667Z,1013.46
2017-05-09T11:31:54.651Z,1013.41
2017-05-09T11:32:54.634Z,1013.38
2017-05-09T11:33:54.621Z,1013.36
2017-05-09T11:34:54.613Z,1013.33
2017-05-09T11:35:54.595Z,1013.34
2017-05-09T11:36:54.581Z,1013.26
2017-05-09T11:37:54.578Z,1013.25
2017-05-09T11:38:54.557Z,1013.22
2017-05-09T11:39:54.544Z,1013.2
2017-05-09T11:40:54.534Z,1013.22
2017-05-09T11:41:54.521Z,1013.21
2017-05-09T11:42:54.505Z,1013.2
2017-05-09T11:43:54.492Z,1013.19
2017-05-09T11:44:54.482Z,1013.18
2017-05-09T11:45:54.471Z,1013.19
2017-05-09T11:46:54.453Z,1013.18
2017-05-09T11:47:54.442Z,1013.22
2017-05-09T11:48:54.429Z,1013.17
2017-05-09T11:49:54.411Z,1013.14
2017-05-09T11:50:54.401Z,1013.15
2017-05-09T11:51:54.388Z,1013.18
2017-05-09T11:52:54.375Z,1013.12
2017-05-09T11:53:54.357Z,1013.06
2017-05-09T11:54:54.348Z,1013.06
2017-05-09T11:55:54.332Z,1013.06
2017-05-09T11:56:54.318Z,1013.05
2017-05-09T11:57:54.304Z,1013.04
2017-05-09T11:58:54.291Z,1013.04
2017-05-09T11:59:54.274Z,1013.04
2017-05-09T12:00:54.260Z,1013.03
2017-05-09T12:01:54.253Z,1012.99
2017-05-09T12:02:54.233Z,1012.97
2017-05-09T12:03:54.223Z,1012.96
2017-05-09T12:04:54.205Z,1012.97
2017-05-09T12:05:54.187Z,1012.96
2017-05-09T12:06:54.182Z,1013
2017-05-09T12:07:54.158Z,1012.98